Terminal Aerodrome Forecast
Issued by NWS

Home | Current Version | Previous Version | Text Only | Print | Product List | Glossary On
Versions: 1 2 3 4 5 6 7 8 9 10 11 12 13 14 15 16 17 18
000
FTUS46 KSEW 062300
TAFPAE
TAF
KPAE 062320Z 0700/0724 34009G15KT P6SM SKC
     FM070300 04004KT P6SM SKC
     FM071800 33008KT P6SM SKC=

USA.gov is the U.S. government's official web portal to all federal, state and local government web resources and services.